Time;durP1;ratioP1;P1;durP2;ratioP2;P2;SDS_P1;SDS_P2;PMS_P1;PMS_P2;Temp;Humidity;BMP_temperature;BMP_pressure;BME280_temperature;BME280_humidity;BME280_pressure;Samples;Min_cycle;Max_cycle;Signal;HPM_P1;HPM_P2
2021/08/11 00:01:43;;;;;;;22.38;20.55;;;;;;;;;;4978977;28;20078;-83
2021/08/11 00:04:10;;;;;;;20.95;19.65;;;;;;;;;;4979149;28;20111;-81
2021/08/11 00:06:37;;;;;;;17.98;16.50;;;;;;;;;;4977460;28;20043;-82
2021/08/11 00:09:06;;;;;;;17.50;16.40;;;;;;;;;;4978170;28;20074;-82
2021/08/11 00:11:34;;;;;;;23.35;22.05;;;;;;;;;;4985225;28;20093;-82
2021/08/11 00:14:01;;;;;;;20.17;18.98;;;;;;;;;;4997241;28;20072;-83
2021/08/11 00:16:28;;;;;;;12.60;11.60;;;;;;;;;;4996269;28;20502;-82
2021/08/11 00:18:55;;;;;;;20.90;19.65;;;;;;;;;;4995311;28;20057;-82
2021/08/11 00:21:22;;;;;;;20.75;19.38;;;;;;;;;;4995833;28;20411;-81
2021/08/11 00:23:49;;;;;;;23.45;22.05;;;;;;;;;;4999546;28;20380;-81
2021/08/11 00:26:17;;;;;;;24.48;23.08;;;;;;;;;;4995294;28;20145;-82
2021/08/11 00:28:44;;;;;;;22.75;21.45;;;;;;;;;;4994452;28;20057;-82
2021/08/11 00:31:11;;;;;;;21.38;20.02;;;;;;;;;;4994129;28;20451;-81
2021/08/11 00:33:38;;;;;;;21.67;19.63;;;;;;;;;;4997891;28;20231;-83
2021/08/11 00:36:05;;;;;;;23.88;22.67;;;;;;;;;;4996961;28;20055;-81
2021/08/11 00:38:33;;;;;;;24.58;23.17;;;;;;;;;;4996075;28;20109;-84
2021/08/11 00:41:00;;;;;;;22.08;20.77;;;;;;;;;;4997806;28;20064;-83
2021/08/11 00:43:28;;;;;;;20.42;19.10;;;;;;;;;;4992492;28;20078;-82
2021/08/11 00:45:55;;;;;;;27.05;25.33;;;;;;;;;;5001265;28;20050;-84
2021/08/11 00:48:24;;;;;;;21.67;20.48;;;;;;;;;;4998787;28;20046;-81
2021/08/11 00:50:51;;;;;;;20.23;19.05;;;;;;;;;;4998498;28;20046;-80
2021/08/11 00:53:22;;;;;;;23.00;21.80;;;;;;;;;;4998534;28;20085;-83
2021/08/11 00:55:50;;;;;;;16.70;15.70;;;;;;;;;;5000478;28;20380;-85
2021/08/11 00:58:19;;;;;;;16.05;14.95;;;;;;;;;;4998332;28;20046;-84
2021/08/11 01:00:49;;;;;;;23.23;21.73;;;;;;;;;;4999012;28;20053;-81
2021/08/11 01:03:17;;;;;;;22.98;21.70;;;;;;;;;;4998953;28;20050;-81
2021/08/11 01:05:45;;;;;;;23.55;22.33;;;;;;;;;;4999157;28;20463;-82
2021/08/11 01:08:12;;;;;;;17.25;15.95;;;;;;;;;;4997489;28;20511;-81
2021/08/11 01:10:39;;;;;;;25.88;24.27;;;;;;;;;;4999721;28;20042;-81
2021/08/11 01:13:06;;;;;;;27.25;25.85;;;;;;;;;;4979349;28;20110;-82
2021/08/11 01:15:33;;;;;;;24.90;23.40;;;;;;;;;;4979469;28;20053;-82
2021/08/11 01:18:03;;;;;;;22.90;21.65;;;;;;;;;;4961999;28;20432;-82
2021/08/11 01:20:31;;;;;;;19.90;18.85;;;;;;;;;;4989014;28;20046;-82
2021/08/11 01:23:01;;;;;;;16.75;15.65;;;;;;;;;;4998322;28;20072;-81
2021/08/11 01:25:31;;;;;;;22.33;20.98;;;;;;;;;;4997466;28;20061;-82
2021/08/11 01:28:26;;;;;;;23.55;22.10;;;;;;;;;;4998717;28;20474;-82
2021/08/11 01:30:58;;;;;;;19.10;17.90;;;;;;;;;;4998416;28;20463;-82
2021/08/11 01:33:50;;;;;;;22.15;20.73;;;;;;;;;;4999219;28;20443;-82
2021/08/11 01:36:39;;;;;;;15.68;14.57;;;;;;;;;;4998777;28;20542;-81
2021/08/11 01:39:09;;;;;;;12.70;11.75;;;;;;;;;;4998840;28;20046;-81
2021/08/11 01:41:37;;;;;;;25.58;24.13;;;;;;;;;;4996974;28;20427;-81
2021/08/11 01:44:06;;;;;;;25.80;24.35;;;;;;;;;;4998180;28;20054;-81
2021/08/11 01:46:33;;;;;;;23.85;22.35;;;;;;;;;;4998626;28;20058;-82
2021/08/11 01:49:03;;;;;;;21.05;19.75;;;;;;;;;;4998134;28;20042;-81
2021/08/11 01:51:31;;;;;;;27.13;25.40;;;;;;;;;;4997635;28;20053;-81
2021/08/11 01:53:57;;;;;;;25.08;23.67;;;;;;;;;;4980021;28;20166;-82
2021/08/11 01:56:25;;;;;;;29.65;28.00;;;;;;;;;;4996460;28;20046;-82
2021/08/11 01:58:52;;;;;;;26.20;24.70;;;;;;;;;;4996507;28;20055;-81
2021/08/11 02:01:18;;;;;;;23.10;21.63;;;;;;;;;;4997378;28;20137;-81
2021/08/11 02:03:45;;;;;;;23.92;22.52;;;;;;;;;;4998746;28;20066;-81
2021/08/11 02:06:14;;;;;;;21.63;20.33;;;;;;;;;;4997755;28;20057;-81
2021/08/11 02:08:42;;;;;;;29.67;27.85;;;;;;;;;;4999006;28;20042;-81
2021/08/11 02:11:09;;;;;;;27.77;26.25;;;;;;;;;;4998013;28;20511;-81
2021/08/11 02:13:37;;;;;;;28.45;27.00;;;;;;;;;;4981009;28;20046;-83
2021/08/11 02:16:04;;;;;;;27.25;25.80;;;;;;;;;;4998897;28;20057;-81
2021/08/11 02:18:31;;;;;;;30.80;28.98;;;;;;;;;;4998819;28;20050;-82
2021/08/11 02:20:58;;;;;;;28.33;26.52;;;;;;;;;;4980960;28;20061;-81
2021/08/11 02:23:26;;;;;;;21.45;20.25;;;;;;;;;;4998868;28;20129;-82
2021/08/11 02:25:56;;;;;;;26.20;24.58;;;;;;;;;;4999635;28;20061;-82
2021/08/11 02:28:27;;;;;;;27.73;26.23;;;;;;;;;;4999277;28;20046;-82
2021/08/11 02:30:59;;;;;;;27.13;25.55;;;;;;;;;;5000295;28;20410;-82
2021/08/11 02:33:31;;;;;;;22.48;21.17;;;;;;;;;;5000476;28;20074;-82
2021/08/11 02:36:03;;;;;;;23.10;21.67;;;;;;;;;;5001178;28;20046;-82
2021/08/11 02:38:33;;;;;;;16.08;14.77;;;;;;;;;;5005178;28;20106;-82
2021/08/11 02:41:03;;;;;;;14.65;13.65;;;;;;;;;;5004361;28;20061;-82
2021/08/11 02:43:34;;;;;;;19.17;18.00;;;;;;;;;;5005194;28;20046;-81
2021/08/11 02:46:03;;;;;;;11.75;10.93;;;;;;;;;;4994068;28;20051;-81
2021/08/11 02:48:31;;;;;;;21.05;19.67;;;;;;;;;;4995273;28;20057;-81
2021/08/11 02:50:57;;;;;;;25.25;23.85;;;;;;;;;;4995222;28;20053;-82
2021/08/11 02:53:25;;;;;;;15.50;14.50;;;;;;;;;;4995970;28;20046;-81
2021/08/11 02:55:53;;;;;;;17.88;16.88;;;;;;;;;;4995008;28;20050;-81
2021/08/11 02:58:20;;;;;;;20.75;19.40;;;;;;;;;;4995855;28;20046;-81
2021/08/11 03:00:48;;;;;;;12.55;11.55;;;;;;;;;;4995455;28;20060;-80
2021/08/11 03:03:15;;;;;;;24.63;23.33;;;;;;;;;;4995135;28;20495;-81
2021/08/11 03:05:42;;;;;;;21.90;20.60;;;;;;;;;;4993240;28;20050;-81
2021/08/11 03:08:09;;;;;;;21.83;20.48;;;;;;;;;;4995575;28;20046;-81
2021/08/11 03:10:36;;;;;;;23.30;21.98;;;;;;;;;;4994820;28;20053;-81
2021/08/11 03:13:04;;;;;;;19.30;18.10;;;;;;;;;;4993851;28;20054;-81
2021/08/11 03:15:32;;;;;;;20.58;19.38;;;;;;;;;;4995289;28;20046;-81
2021/08/11 03:17:58;;;;;;;14.30;13.30;;;;;;;;;;4997679;28;20051;-81
2021/08/11 03:20:25;;;;;;;18.10;17.00;;;;;;;;;;4995408;28;20058;-81
2021/08/11 03:22:51;;;;;;;13.23;11.98;;;;;;;;;;4995636;28;20050;-81
2021/08/11 03:25:18;;;;;;;10.48;9.43;;;;;;;;;;4995654;28;20057;-81
2021/08/11 03:27:45;;;;;;;8.85;8.05;;;;;;;;;;4995007;28;20407;-81
2021/08/11 03:30:15;;;;;;;20.88;19.58;;;;;;;;;;4994404;28;20046;-80
2021/08/11 03:32:42;;;;;;;17.88;16.73;;;;;;;;;;4995924;28;20057;-81
2021/08/11 03:35:09;;;;;;;14.63;13.73;;;;;;;;;;4994307;28;20059;-81
2021/08/11 03:37:36;;;;;;;13.23;12.32;;;;;;;;;;4977241;28;20129;-81
2021/08/11 03:40:03;;;;;;;15.18;14.27;;;;;;;;;;4995589;28;20050;-80
2021/08/11 03:42:29;;;;;;;10.38;9.48;;;;;;;;;;4995821;28;20523;-80
2021/08/11 03:44:56;;;;;;;20.60;19.38;;;;;;;;;;4994719;28;20046;-81
2021/08/11 03:47:24;;;;;;;8.88;8.07;;;;;;;;;;4995862;28;20050;-81
2021/08/11 03:49:51;;;;;;;16.08;14.95;;;;;;;;;;4995265;28;20046;-81
2021/08/11 03:52:17;;;;;;;9.65;8.85;;;;;;;;;;4993281;28;20048;-80
2021/08/11 03:54:44;;;;;;;18.30;17.25;;;;;;;;;;4995808;28;20050;-81
2021/08/11 03:57:11;;;;;;;23.42;22.20;;;;;;;;;;4995535;28;20056;-81
2021/08/11 03:59:37;;;;;;;16.27;15.02;;;;;;;;;;4995661;28;20134;-81
2021/08/11 04:02:05;;;;;;;23.95;22.42;;;;;;;;;;4993584;28;20776;-81
2021/08/11 04:04:33;;;;;;;23.65;22.25;;;;;;;;;;4994359;28;20599;-81
2021/08/11 04:07:00;;;;;;;22.77;21.50;;;;;;;;;;4995758;28;20050;-81
2021/08/11 04:09:27;;;;;;;32.85;30.98;;;;;;;;;;4995272;28;20050;-81
2021/08/11 04:11:54;;;;;;;34.30;32.45;;;;;;;;;;4994831;28;20047;-82
2021/08/11 04:14:20;;;;;;;30.48;28.80;;;;;;;;;;4995208;28;20053;-80
2021/08/11 04:16:47;;;;;;;23.02;21.45;;;;;;;;;;4999160;28;20047;-81
2021/08/11 04:19:13;;;;;;;13.82;12.63;;;;;;;;;;4998654;28;20050;-82
2021/08/11 04:21:41;;;;;;;24.83;23.40;;;;;;;;;;4997019;28;20506;-82
2021/08/11 04:24:08;;;;;;;31.23;29.42;;;;;;;;;;4998611;28;20384;-81
2021/08/11 04:26:35;;;;;;;24.90;23.40;;;;;;;;;;4994667;28;20542;-80
2021/08/11 04:29:02;;;;;;;17.77;16.77;;;;;;;;;;4991941;28;20054;-82
2021/08/11 04:31:29;;;;;;;18.88;17.73;;;;;;;;;;4995953;28;20054;-81
2021/08/11 04:33:56;;;;;;;32.15;30.33;;;;;;;;;;4996561;28;20038;-81
2021/08/11 04:36:22;;;;;;;28.33;26.83;;;;;;;;;;4998969;28;20054;-81
2021/08/11 04:38:51;;;;;;;33.05;31.35;;;;;;;;;;4999125;28;20097;-82
2021/08/11 04:41:18;;;;;;;34.83;32.88;;;;;;;;;;4997751;28;20511;-82
2021/08/11 04:43:45;;;;;;;22.25;20.92;;;;;;;;;;4997898;28;20395;-82
2021/08/11 04:46:11;;;;;;;12.73;11.88;;;;;;;;;;4998686;28;20046;-82
2021/08/11 04:48:38;;;;;;;14.57;13.50;;;;;;;;;;4998442;28;20058;-82
2021/08/11 04:51:05;;;;;;;16.58;15.48;;;;;;;;;;4999100;28;20436;-82
2021/08/11 04:53:32;;;;;;;35.85;34.00;;;;;;;;;;4981967;28;20046;-82
2021/08/11 04:56:00;;;;;;;39.63;37.47;;;;;;;;;;4993312;28;20053;-81
2021/08/11 04:58:27;;;;;;;35.75;33.88;;;;;;;;;;4992992;28;20411;-82
2021/08/11 05:00:53;;;;;;;40.00;37.80;;;;;;;;;;4999392;28;20057;-81
2021/08/11 05:03:20;;;;;;;37.13;35.22;;;;;;;;;;5000571;28;20062;-82
2021/08/11 05:05:46;;;;;;;27.98;26.48;;;;;;;;;;4992309;28;20042;-82
2021/08/11 05:08:13;;;;;;;40.92;38.63;;;;;;;;;;4992816;28;20057;-81
2021/08/11 05:10:40;;;;;;;44.45;42.13;;;;;;;;;;4984853;28;20043;-82
2021/08/11 05:13:08;;;;;;;30.27;28.48;;;;;;;;;;4958824;28;20050;-83
2021/08/11 05:15:34;;;;;;;30.58;28.85;;;;;;;;;;4990079;28;20061;-83
2021/08/11 05:18:01;;;;;;;24.20;22.80;;;;;;;;;;4994510;28;20053;-82
2021/08/11 05:20:28;;;;;;;21.40;20.10;;;;;;;;;;4995861;28;20057;-82
2021/08/11 05:22:55;;;;;;;22.90;21.52;;;;;;;;;;4979068;28;20583;-81
2021/08/11 05:25:22;;;;;;;31.70;30.00;;;;;;;;;;4985734;28;20050;-83
2021/08/11 05:27:48;;;;;;;23.88;22.48;;;;;;;;;;4992219;28;20050;-83
2021/08/11 05:30:16;;;;;;;25.35;23.85;;;;;;;;;;4987014;28;20061;-82
2021/08/11 05:32:43;;;;;;;27.73;26.27;;;;;;;;;;4998473;28;20061;-83
2021/08/11 05:35:11;;;;;;;28.02;26.52;;;;;;;;;;4966437;28;20046;-83
2021/08/11 05:37:38;;;;;;;29.92;28.30;;;;;;;;;;4983494;28;20050;-82
2021/08/11 05:40:06;;;;;;;28.58;26.90;;;;;;;;;;4965537;28;20054;-82
2021/08/11 05:42:32;;;;;;;21.70;20.27;;;;;;;;;;4998454;28;20050;-83
2021/08/11 05:44:59;;;;;;;16.63;15.35;;;;;;;;;;4998792;28;20053;-83
2021/08/11 05:47:27;;;;;;;19.65;18.55;;;;;;;;;;4999493;28;20042;-82
2021/08/11 05:49:54;;;;;;;20.77;19.63;;;;;;;;;;4999684;28;20053;-83
2021/08/11 05:52:20;;;;;;;21.58;20.20;;;;;;;;;;4997712;28;20061;-83
2021/08/11 05:54:49;;;;;;;11.60;10.70;;;;;;;;;;5000235;28;20084;-83
2021/08/11 05:57:16;;;;;;;23.05;21.70;;;;;;;;;;4999219;28;20091;-83
2021/08/11 05:59:43;;;;;;;18.08;16.98;;;;;;;;;;4998264;28;20054;-83
2021/08/11 06:02:10;;;;;;;20.77;19.48;;;;;;;;;;4998714;28;20396;-83
2021/08/11 06:04:38;;;;;;;21.80;20.48;;;;;;;;;;5006737;28;20110;-83
2021/08/11 06:07:05;;;;;;;24.10;22.50;;;;;;;;;;5003547;28;20517;-84
2021/08/11 06:09:31;;;;;;;23.33;21.60;;;;;;;;;;5002967;28;20050;-84
2021/08/11 06:11:57;;;;;;;26.25;24.65;;;;;;;;;;5001557;28;20050;-84
2021/08/11 06:14:24;;;;;;;24.20;22.65;;;;;;;;;;5001785;28;20062;-83
2021/08/11 06:16:51;;;;;;;30.92;28.73;;;;;;;;;;4997619;28;20459;-83
2021/08/11 06:19:18;;;;;;;32.33;30.52;;;;;;;;;;4997027;28;20055;-83
2021/08/11 06:21:46;;;;;;;35.80;33.72;;;;;;;;;;4997029;28;20047;-83
2021/08/11 06:24:12;;;;;;;36.95;34.92;;;;;;;;;;4997359;28;20106;-84
2021/08/11 06:26:39;;;;;;;37.60;35.25;;;;;;;;;;4995921;28;20093;-84
2021/08/11 06:29:06;;;;;;;38.35;36.25;;;;;;;;;;4997417;28;20479;-84
2021/08/11 06:31:33;;;;;;;32.58;30.77;;;;;;;;;;4997446;28;20050;-83
2021/08/11 06:34:00;;;;;;;33.20;31.33;;;;;;;;;;4996915;28;20054;-83
2021/08/11 06:36:26;;;;;;;30.02;28.25;;;;;;;;;;4997522;28;20054;-83
2021/08/11 06:38:54;;;;;;;30.75;28.98;;;;;;;;;;4998220;28;20133;-83
2021/08/11 06:41:21;;;;;;;32.22;30.55;;;;;;;;;;4997629;28;20069;-84
2021/08/11 06:43:48;;;;;;;29.00;27.38;;;;;;;;;;4998182;28;20488;-84
2021/08/11 06:46:15;;;;;;;26.23;24.67;;;;;;;;;;4998103;28;20612;-84
2021/08/11 06:48:42;;;;;;;27.60;26.08;;;;;;;;;;4999702;28;20046;-84
2021/08/11 06:51:10;;;;;;;26.42;24.92;;;;;;;;;;5004039;28;20061;-84
2021/08/11 06:53:37;;;;;;;27.05;25.35;;;;;;;;;;5004194;28;20052;-84
2021/08/11 06:56:05;;;;;;;26.17;24.67;;;;;;;;;;5004485;28;20060;-84
2021/08/11 06:58:32;;;;;;;24.17;22.75;;;;;;;;;;5006118;28;20053;-82
2021/08/11 07:00:59;;;;;;;23.20;21.48;;;;;;;;;;5003598;28;20046;-81
2021/08/11 07:03:26;;;;;;;29.60;27.65;;;;;;;;;;5002959;28;20085;-81
2021/08/11 07:05:52;;;;;;;26.45;24.63;;;;;;;;;;4995899;28;20042;-81
2021/08/11 07:08:20;;;;;;;23.30;21.90;;;;;;;;;;4995159;28;20050;-81
2021/08/11 07:10:47;;;;;;;29.05;27.35;;;;;;;;;;4996286;28;20443;-81
2021/08/11 07:13:16;;;;;;;32.72;30.98;;;;;;;;;;4996058;28;20064;-81
2021/08/11 07:15:42;;;;;;;28.92;27.17;;;;;;;;;;4997100;28;20476;-82
2021/08/11 07:18:11;;;;;;;27.55;25.90;;;;;;;;;;4997870;28;20412;-82
2021/08/11 07:20:38;;;;;;;30.80;29.20;;;;;;;;;;4997264;28;20042;-82
2021/08/11 07:23:04;;;;;;;26.42;25.02;;;;;;;;;;4978249;28;20053;-82
2021/08/11 07:25:31;;;;;;;26.20;24.92;;;;;;;;;;4995363;28;20053;-82
2021/08/11 07:27:58;;;;;;;28.80;27.52;;;;;;;;;;4994698;28;20042;-82
2021/08/11 07:30:26;;;;;;;22.70;21.42;;;;;;;;;;4995191;28;20050;-82
2021/08/11 07:32:53;;;;;;;21.75;20.50;;;;;;;;;;4987990;28;20054;-82
2021/08/11 07:35:20;;;;;;;21.60;20.58;;;;;;;;;;4959551;28;20086;-82
2021/08/11 07:37:48;;;;;;;20.00;19.00;;;;;;;;;;4977246;28;20058;-82
2021/08/11 07:40:15;;;;;;;22.25;21.17;;;;;;;;;;4976585;28;20051;-82
2021/08/11 07:42:42;;;;;;;26.08;24.73;;;;;;;;;;4975708;28;20055;-83
2021/08/11 07:45:09;;;;;;;24.80;23.70;;;;;;;;;;4977908;28;20047;-81
2021/08/11 07:47:37;;;;;;;25.75;24.65;;;;;;;;;;4994703;28;20483;-82
2021/08/11 07:50:05;;;;;;;24.33;23.30;;;;;;;;;;4996375;28;20050;-82
2021/08/11 07:52:32;;;;;;;27.23;26.05;;;;;;;;;;5002385;28;20042;-84
2021/08/11 07:54:59;;;;;;;29.38;27.98;;;;;;;;;;5002351;28;20054;-83
2021/08/11 07:57:26;;;;;;;25.98;24.77;;;;;;;;;;5000547;28;20057;-84
2021/08/11 07:59:53;;;;;;;64.45;61.58;;;;;;;;;;5002898;28;20414;-85
2021/08/11 08:02:19;;;;;;;48.30;46.08;;;;;;;;;;5002470;28;20133;-84
2021/08/11 08:04:47;;;;;;;26.40;25.20;;;;;;;;;;5000192;28;20410;-83
2021/08/11 08:07:14;;;;;;;26.15;24.90;;;;;;;;;;5001205;28;20496;-85
2021/08/11 08:09:41;;;;;;;26.48;25.20;;;;;;;;;;5001869;28;20487;-85
2021/08/11 08:12:09;;;;;;;29.52;28.13;;;;;;;;;;5003489;28;20054;-85
2021/08/11 08:14:37;;;;;;;27.33;26.08;;;;;;;;;;5003638;28;20054;-84
2021/08/11 08:17:05;;;;;;;26.02;24.83;;;;;;;;;;5004322;28;20052;-82
2021/08/11 08:19:32;;;;;;;25.85;24.60;;;;;;;;;;5003476;28;20050;-83
2021/08/11 08:22:00;;;;;;;25.67;24.25;;;;;;;;;;5004448;28;20042;-82
2021/08/11 08:24:31;;;;;;;25.55;24.35;;;;;;;;;;5003221;28;20046;-83
2021/08/11 08:26:58;;;;;;;24.63;23.30;;;;;;;;;;5004191;28;20050;-83
2021/08/11 08:29:24;;;;;;;27.45;25.92;;;;;;;;;;5002381;28;20062;-82
2021/08/11 08:31:51;;;;;;;26.70;25.50;;;;;;;;;;5003550;28;20050;-83
2021/08/11 08:34:18;;;;;;;23.80;22.65;;;;;;;;;;5004526;28;20057;-82
2021/08/11 08:36:45;;;;;;;62.58;59.80;;;;;;;;;;5002086;28;20054;-83
2021/08/11 08:39:13;;;;;;;52.03;49.88;;;;;;;;;;5003508;28;20042;-83
2021/08/11 08:41:42;;;;;;;32.42;31.02;;;;;;;;;;5004085;28;20050;-84
2021/08/11 08:44:10;;;;;;;20.45;19.52;;;;;;;;;;5003145;28;20046;-83
2021/08/11 08:46:37;;;;;;;29.25;27.80;;;;;;;;;;5003190;28;20050;-83
2021/08/11 08:49:06;;;;;;;38.83;37.22;;;;;;;;;;5002115;28;20046;-83
2021/08/11 08:51:38;;;;;;;30.25;28.92;;;;;;;;;;5003830;28;20046;-83
2021/08/11 08:54:05;;;;;;;24.77;23.67;;;;;;;;;;5002370;28;20074;-83
2021/08/11 08:56:34;;;;;;;25.20;24.00;;;;;;;;;;5002060;28;20061;-83
2021/08/11 08:59:01;;;;;;;26.67;25.50;;;;;;;;;;5004514;28;20061;-83
2021/08/11 09:01:29;;;;;;;31.23;29.58;;;;;;;;;;5001496;28;20057;-84
2021/08/11 09:03:55;;;;;;;24.05;23.00;;;;;;;;;;4998986;28;20415;-83
2021/08/11 09:06:22;;;;;;;27.67;26.50;;;;;;;;;;5000112;28;20050;-83
2021/08/11 09:08:56;;;;;;;28.13;26.92;;;;;;;;;;4999640;28;20042;-83
2021/08/11 09:11:23;;;;;;;25.67;24.48;;;;;;;;;;5001707;28;20427;-83
2021/08/11 09:14:15;;;;;;;26.00;24.80;;;;;;;;;;5001986;28;20415;-83
2021/08/11 09:16:47;;;;;;;35.45;33.85;;;;;;;;;;5001487;28;20050;-83
2021/08/11 09:19:14;;;;;;;24.95;23.77;;;;;;;;;;5001408;28;20047;-82
2021/08/11 09:21:41;;;;;;;26.33;25.17;;;;;;;;;;4998613;28;20046;-83
2021/08/11 09:24:17;;;;;;;26.25;25.10;;;;;;;;;;5000741;28;20046;-82
2021/08/11 09:26:44;;;;;;;24.60;23.52;;;;;;;;;;5000059;28;20491;-82
2021/08/11 09:29:12;;;;;;;29.38;28.17;;;;;;;;;;5000702;28;20070;-83
2021/08/11 09:31:39;;;;;;;27.02;25.80;;;;;;;;;;5001836;28;20061;-83
2021/08/11 09:34:08;;;;;;;22.42;21.42;;;;;;;;;;5000552;28;20093;-82
2021/08/11 09:36:41;;;;;;;24.27;23.17;;;;;;;;;;5000682;28;20060;-83
2021/08/11 09:39:08;;;;;;;19.70;18.63;;;;;;;;;;5001558;28;20539;-84
2021/08/11 09:41:35;;;;;;;23.63;22.40;;;;;;;;;;4985538;28;20054;-85
2021/08/11 09:44:07;;;;;;;19.80;18.90;;;;;;;;;;4998637;28;20498;-83
2021/08/11 09:46:36;;;;;;;23.50;22.40;;;;;;;;;;5002056;28;20496;-83
2021/08/11 09:49:14;;;;;;;27.30;25.85;;;;;;;;;;5001887;28;20065;-85
2021/08/11 09:51:57;;;;;;;27.50;26.10;;;;;;;;;;5000860;28;20054;-84
2021/08/11 09:54:24;;;;;;;54.90;52.60;;;;;;;;;;5000444;28;20070;-83
2021/08/11 09:56:52;;;;;;;29.88;28.52;;;;;;;;;;4999826;28;20069;-83
2021/08/11 09:59:19;;;;;;;23.55;22.40;;;;;;;;;;4999753;28;20050;-83
2021/08/11 10:01:47;;;;;;;21.90;20.80;;;;;;;;;;4999537;28;20097;-82
2021/08/11 10:04:14;;;;;;;26.80;25.60;;;;;;;;;;4999244;28;20057;-83
2021/08/11 10:06:44;;;;;;;16.95;16.08;;;;;;;;;;4998898;28;20043;-82
2021/08/11 10:09:15;;;;;;;20.50;19.50;;;;;;;;;;4997876;28;20509;-83
2021/08/11 10:11:43;;;;;;;29.60;28.40;;;;;;;;;;4998613;28;20089;-83
2021/08/11 10:14:12;;;;;;;32.10;30.60;;;;;;;;;;4998046;28;20047;-84
2021/08/11 10:16:39;;;;;;;20.92;19.92;;;;;;;;;;4997844;28;20137;-83
2021/08/11 10:19:08;;;;;;;29.02;27.75;;;;;;;;;;4998288;28;20066;-83
2021/08/11 10:21:36;;;;;;;19.80;18.90;;;;;;;;;;4998240;28;20053;-83
2021/08/11 10:24:04;;;;;;;29.75;28.35;;;;;;;;;;4999024;28;20106;-83
2021/08/11 10:26:31;;;;;;;21.77;20.73;;;;;;;;;;4998195;28;20483;-85
2021/08/11 10:28:58;;;;;;;26.98;25.35;;;;;;;;;;4999420;28;20077;-83
2021/08/11 10:31:25;;;;;;;29.33;27.98;;;;;;;;;;4997133;28;20065;-83
2021/08/11 10:33:53;;;;;;;17.88;16.98;;;;;;;;;;4998715;28;20479;-85
2021/08/11 10:36:24;;;;;;;21.65;20.52;;;;;;;;;;4998786;28;20089;-82
2021/08/11 10:38:50;;;;;;;18.77;17.88;;;;;;;;;;4998899;28;20050;-81
2021/08/11 10:41:17;;;;;;;16.45;15.55;;;;;;;;;;4996115;28;20042;-82
2021/08/11 10:43:44;;;;;;;23.60;22.40;;;;;;;;;;4997925;28;20046;-82
2021/08/11 10:46:14;;;;;;;20.00;19.00;;;;;;;;;;4979617;28;20050;-83
2021/08/11 10:48:41;;;;;;;12.82;11.90;;;;;;;;;;4996972;28;20077;-82
2021/08/11 10:51:08;;;;;;;16.45;15.55;;;;;;;;;;4996741;28;20047;-82
2021/08/11 10:53:37;;;;;;;12.35;11.10;;;;;;;;;;4999178;28;20049;-83
2021/08/11 10:56:04;;;;;;;22.77;21.70;;;;;;;;;;4999089;28;20118;-82
2021/08/11 10:58:41;;;;;;;21.45;20.45;;;;;;;;;;4998106;28;20050;-81
2021/08/11 11:01:28;;;;;;;17.05;16.25;;;;;;;;;;4997173;28;20050;-82
2021/08/11 11:03:54;;;;;;;12.57;11.88;;;;;;;;;;4997482;28;20046;-82
2021/08/11 11:06:21;;;;;;;24.83;23.67;;;;;;;;;;4996711;28;20053;-82
2021/08/11 11:08:51;;;;;;;16.38;15.57;;;;;;;;;;4997227;28;20408;-83
2021/08/11 11:11:42;;;;;;;18.63;17.70;;;;;;;;;;4996919;28;20056;-82
2021/08/11 11:14:55;;;;;;;17.30;16.40;;;;;;;;;;4998331;28;20043;-81
2021/08/11 11:17:23;;;;;;;17.55;16.55;;;;;;;;;;4979338;28;20055;-81
2021/08/11 11:20:27;;;;;;;15.73;14.73;;;;;;;;;;4980408;28;20046;-82
2021/08/11 11:23:01;;;;;;;22.20;20.88;;;;;;;;;;4977122;28;20055;-83
2021/08/11 11:26:11;;;;;;;23.85;22.65;;;;;;;;;;4977123;28;20500;-83
2021/08/11 11:28:52;;;;;;;20.42;19.42;;;;;;;;;;4976317;28;20129;-82
2021/08/11 11:31:32;;;;;;;26.05;24.70;;;;;;;;;;4977731;28;20384;-83
2021/08/11 11:34:36;;;;;;;14.23;13.32;;;;;;;;;;4976911;28;20066;-83
2021/08/11 11:37:25;;;;;;;15.82;14.18;;;;;;;;;;4977312;28;20055;-83
2021/08/11 11:40:15;;;;;;;16.05;14.95;;;;;;;;;;4976518;28;20062;-82
2021/08/11 11:42:43;;;;;;;41.33;39.30;;;;;;;;;;4975470;28;20506;-82
2021/08/11 11:45:13;;;;;;;17.13;16.27;;;;;;;;;;4979879;28;20740;-83
2021/08/11 11:48:10;;;;;;;36.85;35.03;;;;;;;;;;4995091;28;20130;-82
2021/08/11 11:50:43;;;;;;;16.90;15.95;;;;;;;;;;4976676;28;20061;-83
2021/08/11 11:53:11;;;;;;;23.88;22.67;;;;;;;;;;4989117;28;20049;-83
2021/08/11 11:55:38;;;;;;;21.00;19.92;;;;;;;;;;4979887;28;20049;-83
2021/08/11 11:58:07;;;;;;;21.70;20.55;;;;;;;;;;4974561;28;20061;-83
2021/08/11 12:00:36;;;;;;;14.85;13.98;;;;;;;;;;4976763;28;20057;-83
2021/08/11 12:03:04;;;;;;;14.27;13.43;;;;;;;;;;4976082;28;20059;-82
2021/08/11 12:05:44;;;;;;;21.35;20.15;;;;;;;;;;4976771;28;20078;-83
2021/08/11 12:08:13;;;;;;;18.10;16.95;;;;;;;;;;4976339;28;20046;-82
2021/08/11 12:10:40;;;;;;;13.93;12.73;;;;;;;;;;4977200;28;20102;-83
2021/08/11 12:13:07;;;;;;;13.77;12.80;;;;;;;;;;4977808;28;20051;-82
2021/08/11 12:15:36;;;;;;;16.75;15.00;;;;;;;;;;4994708;28;20133;-82
2021/08/11 12:18:13;;;;;;;20.63;18.95;;;;;;;;;;4994774;28;20050;-83
2021/08/11 12:20:40;;;;;;;18.52;15.10;;;;;;;;;;4994757;28;20053;-83
2021/08/11 12:23:17;;;;;;;18.98;17.52;;;;;;;;;;4990675;28;20055;-83
2021/08/11 12:25:44;;;;;;;17.25;16.02;;;;;;;;;;4977823;28;20043;-83
2021/08/11 12:28:12;;;;;;;17.10;16.02;;;;;;;;;;4979400;28;20050;-83
2021/08/11 12:30:42;;;;;;;15.35;14.07;;;;;;;;;;4978050;28;20130;-84
2021/08/11 12:33:09;;;;;;;17.15;16.08;;;;;;;;;;4978705;28;20114;-82
2021/08/11 12:35:38;;;;;;;15.73;14.73;;;;;;;;;;4978221;28;20050;-83
2021/08/11 12:38:05;;;;;;;22.67;21.30;;;;;;;;;;4979107;28;20054;-83
2021/08/11 12:40:33;;;;;;;19.98;18.90;;;;;;;;;;4981216;28;20050;-83
2021/08/11 12:43:01;;;;;;;14.77;13.90;;;;;;;;;;4981750;28;20146;-83
2021/08/11 12:45:47;;;;;;;15.45;14.57;;;;;;;;;;5000304;28;20502;-83
2021/08/11 12:48:23;;;;;;;;;;;;;;;;;;5002761;28;20046;-82
2021/08/11 12:50:50;;;;;;;27.85;26.27;;;;;;;;;;5001945;28;19922;-84
2021/08/11 12:53:23;;;;;;;16.52;15.52;;;;;;;;;;5003232;28;20057;-83
2021/08/11 12:55:49;;;;;;;16.05;14.95;;;;;;;;;;5006483;28;20110;-82
2021/08/11 12:58:16;;;;;;;23.00;21.50;;;;;;;;;;5006736;28;20046;-83
2021/08/11 13:00:44;;;;;;;18.65;17.48;;;;;;;;;;5007593;28;20050;-82
2021/08/11 13:03:12;;;;;;;14.50;13.55;;;;;;;;;;5007684;28;20050;-82
2021/08/11 13:05:49;;;;;;;17.08;16.13;;;;;;;;;;5010432;28;20125;-82
2021/08/11 13:08:16;;;;;;;17.58;16.55;;;;;;;;;;5012392;28;20046;-83
2021/08/11 13:10:54;;;;;;;15.20;14.32;;;;;;;;;;5010663;28;20057;-83
2021/08/11 13:13:22;;;;;;;15.90;14.98;;;;;;;;;;5012077;28;20534;-82
2021/08/11 13:15:48;;;;;;;18.88;17.88;;;;;;;;;;5010222;28;20050;-83
2021/08/11 13:18:26;;;;;;;16.65;15.55;;;;;;;;;;5000010;28;20088;-82
2021/08/11 13:20:52;;;;;;;15.27;14.38;;;;;;;;;;4998880;28;20057;-83
2021/08/11 13:23:19;;;;;;;15.57;14.68;;;;;;;;;;5000654;28;20043;-84
2021/08/11 13:25:47;;;;;;;23.52;22.33;;;;;;;;;;4999115;28;20082;-82
2021/08/11 13:28:16;;;;;;;14.45;13.48;;;;;;;;;;5001095;28;20042;-82
2021/08/11 13:30:43;;;;;;;17.00;16.02;;;;;;;;;;5016021;28;20101;-83
2021/08/11 13:33:10;;;;;;;15.93;15.02;;;;;;;;;;5000634;28;20120;-83
2021/08/11 13:35:38;;;;;;;14.63;13.73;;;;;;;;;;5000895;28;20057;-83
2021/08/11 13:38:11;;;;;;;15.13;14.13;;;;;;;;;;5000433;28;20048;-82
2021/08/11 13:40:39;;;;;;;15.20;14.27;;;;;;;;;;4991666;28;20140;-84
2021/08/11 13:43:06;;;;;;;15.25;14.27;;;;;;;;;;4985708;28;20057;-85
2021/08/11 13:45:33;;;;;;;13.25;12.40;;;;;;;;;;4984616;28;20488;-84
2021/08/11 13:48:05;;;;;;;17.40;16.40;;;;;;;;;;4993496;28;20814;-83
2021/08/11 13:50:33;;;;;;;21.20;20.02;;;;;;;;;;4979848;28;20055;-84
2021/08/11 13:53:02;;;;;;;18.90;17.95;;;;;;;;;;4978774;28;20047;-84
2021/08/11 13:55:28;;;;;;;15.27;14.27;;;;;;;;;;4979428;28;20406;-83
2021/08/11 13:57:55;;;;;;;17.88;16.73;;;;;;;;;;4978240;28;20057;-83
2021/08/11 14:00:22;;;;;;;22.85;21.58;;;;;;;;;;4979531;28;20047;-83
2021/08/11 14:02:49;;;;;;;16.40;15.48;;;;;;;;;;4994282;28;20054;-83
2021/08/11 14:05:17;;;;;;;15.50;14.50;;;;;;;;;;4997755;28;20054;-84
2021/08/11 14:07:43;;;;;;;14.68;13.73;;;;;;;;;;4994388;28;20043;-83
2021/08/11 14:10:12;;;;;;;13.43;12.48;;;;;;;;;;4981150;28;20487;-83
2021/08/11 14:12:39;;;;;;;17.13;16.00;;;;;;;;;;4994816;28;20133;-83
2021/08/11 14:15:07;;;;;;;18.85;17.80;;;;;;;;;;4995618;28;20058;-83
2021/08/11 14:17:35;;;;;;;17.92;16.70;;;;;;;;;;4996948;28;20065;-84
2021/08/11 14:20:02;;;;;;;16.50;15.55;;;;;;;;;;5000135;28;20049;-84
2021/08/11 14:22:28;;;;;;;20.48;19.40;;;;;;;;;;5000140;28;20409;-84
2021/08/11 14:24:55;;;;;;;27.73;26.27;;;;;;;;;;4999934;28;20056;-82
2021/08/11 14:27:24;;;;;;;15.32;14.25;;;;;;;;;;4999797;28;20049;-82
2021/08/11 14:29:51;;;;;;;19.35;18.30;;;;;;;;;;4999279;28;20058;-83